createdAt,value
2018-06-13T09:05:31.752Z,50.48
2018-06-13T09:06:37.842Z,50.48
2018-06-13T09:07:44.009Z,49.90
2018-06-13T09:08:49.923Z,49.32
2018-06-13T09:09:55.533Z,47.83
2018-06-13T09:11:01.445Z,47.98
2018-06-13T09:12:07.950Z,46.81
2018-06-13T09:13:13.886Z,46.45
2018-06-13T09:14:19.834Z,46.98
2018-06-13T09:15:25.896Z,46.75
2018-06-13T09:16:31.846Z,46.71
2018-06-13T09:17:38.562Z,46.35
2018-06-13T09:18:44.495Z,46.28
2018-06-13T09:19:50.463Z,45.96
2018-06-13T09:20:56.399Z,45.62
2018-06-13T09:22:02.428Z,46.81
2018-06-13T09:23:08.376Z,46.83
2018-06-13T09:24:14.293Z,46.72
2018-06-13T09:25:20.341Z,47.49
2018-06-13T09:26:25.952Z,47.68
2018-06-13T09:27:32.138Z,47.42
2018-06-13T09:28:38.086Z,48.47
2018-06-13T09:29:43.815Z,47.40
2018-06-13T09:30:49.341Z,47.51
2018-06-13T09:31:55.295Z,47.72
2018-06-13T09:33:01.316Z,48.20
2018-06-13T09:34:08.325Z,48.20
2018-06-13T09:35:13.990Z,48.52
2018-06-13T09:36:19.892Z,48.21
2018-06-13T09:37:25.918Z,47.80
2018-06-13T09:38:52.411Z,48.50
2018-06-13T09:39:58.508Z,48.02
2018-06-13T09:41:04.424Z,47.69
2018-06-13T09:42:10.387Z,47.64
2018-06-13T09:56:02.387Z,50.33
2018-06-13T10:14:46.835Z,51.31
2018-06-13T10:21:03.795Z,52.72
2018-06-13T10:34:56.401Z,52.09
2018-06-13T10:46:49.359Z,48.32
2018-06-13T10:47:55.333Z,48.67
2018-06-13T10:49:01.284Z,47.86
2018-06-13T10:50:07.252Z,48.54
2018-06-13T10:51:13.179Z,48.47
2018-06-13T10:52:19.131Z,48.54
2018-06-13T10:53:25.190Z,49.59
2018-06-13T10:54:31.099Z,49.90
2018-06-13T10:55:37.240Z,50.77
2018-06-13T10:56:43.326Z,51.78
2018-06-13T10:57:56.011Z,53.36
2018-06-13T10:59:01.756Z,53.45
2018-06-13T11:00:07.589Z,54.23
2018-06-13T11:01:13.611Z,53.75
2018-06-13T11:02:19.566Z,54.17
2018-06-13T11:03:25.526Z,53.60
2018-06-13T11:04:31.652Z,54.30
2018-06-13T11:05:38.262Z,54.89
2018-06-13T11:06:44.929Z,54.92
2018-06-13T11:07:51.599Z,54.58
2018-06-13T11:08:57.967Z,54.46
2018-06-13T11:10:04.063Z,53.72
2018-06-13T11:11:10.640Z,54.34
2018-06-13T11:12:17.189Z,55.30
2018-06-13T11:13:23.533Z,56.02
2018-06-13T11:14:30.160Z,55.80
2018-06-13T11:15:36.638Z,55.55
2018-06-13T11:16:43.264Z,55.42
2018-06-13T11:17:49.832Z,55.25
2018-06-13T11:18:56.495Z,56.08
2018-06-13T11:20:03.073Z,55.90
2018-06-13T11:21:09.809Z,56.41
2018-06-13T11:22:16.776Z,56.10
2018-06-13T11:23:23.261Z,56.04
2018-06-13T11:24:29.894Z,55.65
2018-06-13T11:25:36.530Z,56.26
2018-06-13T11:26:43.225Z,56.11
2018-06-13T11:27:49.165Z,55.90
2018-06-13T11:28:55.162Z,55.96
2018-06-13T11:30:01.387Z,55.38
2018-06-13T11:31:07.824Z,55.15
2018-06-13T11:32:13.795Z,55.16
2018-06-13T11:33:19.741Z,54.86
2018-06-13T11:34:25.710Z,54.96
2018-06-13T11:35:31.315Z,54.93
2018-06-13T11:36:37.213Z,54.96
2018-06-13T11:37:43.165Z,54.44
2018-06-13T11:38:49.118Z,55.09
2018-06-13T11:39:55.197Z,54.46
2018-06-13T11:41:01.271Z,54.82
2018-06-13T11:42:07.248Z,53.99
2018-06-13T11:43:14.129Z,53.81
2018-06-13T11:44:21.832Z,53.48
2018-06-13T11:45:27.855Z,54.05
2018-06-13T11:46:34.107Z,52.99
2018-06-13T11:47:40.063Z,52.96
2018-06-13T11:48:46.089Z,52.37
2018-06-13T11:49:52.039Z,51.96
2018-06-13T11:50:58.010Z,51.82
2018-06-13T11:52:03.938Z,51.73
2018-06-13T11:53:10.073Z,50.79
2018-06-13T11:54:16.023Z,51.31
2018-06-13T11:55:22.077Z,50.55
2018-06-13T11:56:28.059Z,50.70
2018-06-13T11:57:34.029Z,49.79
2018-06-13T11:58:40.014Z,49.76
2018-06-13T11:59:46.070Z,48.90
2018-06-13T12:00:52.034Z,48.47
2018-06-13T12:01:57.974Z,49.08
2018-06-13T12:03:03.935Z,49.02
2018-06-13T12:04:09.898Z,49.13
2018-06-13T12:05:15.882Z,48.64
2018-06-13T12:06:21.978Z,48.17
2018-06-13T12:07:27.947Z,49.20
2018-06-13T12:08:33.882Z,48.61
2018-06-13T12:09:39.911Z,48.56
2018-06-13T12:10:46.222Z,48.36
2018-06-13T12:11:52.195Z,49.37
2018-06-13T12:12:58.218Z,48.87
2018-06-13T12:14:04.515Z,49.44
2018-06-13T12:15:10.449Z,49.15
2018-06-13T12:16:16.471Z,49.82
2018-06-13T12:17:22.069Z,50.05
2018-06-13T12:18:27.958Z,49.80
2018-06-13T12:19:33.893Z,49.72
2018-06-13T12:20:39.858Z,50.50
2018-06-13T12:21:45.794Z,50.68
2018-06-13T12:22:51.774Z,50.21
2018-06-13T12:23:57.731Z,50.21
2018-06-13T12:25:03.887Z,50.90
2018-06-13T12:26:09.876Z,50.03
2018-06-13T12:27:15.845Z,50.90
2018-06-13T12:28:21.911Z,50.37
2018-06-13T12:29:27.871Z,50.38
2018-06-13T12:30:33.622Z,51.13
2018-06-13T12:31:39.886Z,50.36
2018-06-13T12:32:45.990Z,50.90
2018-06-13T12:33:52.348Z,50.60
2018-06-13T12:34:58.402Z,50.79
2018-06-13T12:36:04.382Z,50.40
2018-06-13T12:37:10.386Z,50.26
2018-06-13T12:38:16.034Z,49.75
2018-06-13T12:39:21.946Z,49.57
2018-06-13T12:40:27.954Z,48.74
2018-06-13T12:41:33.924Z,48.50
2018-06-13T12:42:39.919Z,49.12
2018-06-13T12:43:45.885Z,49.04
2018-06-13T12:44:51.901Z,48.85
2018-06-13T12:45:58.075Z,48.99
2018-06-13T12:47:04.934Z,49.00
2018-06-13T12:48:10.930Z,49.25
2018-06-13T12:49:16.870Z,48.98
2018-06-13T12:50:22.828Z,48.62
2018-06-13T12:51:28.839Z,49.31
2018-06-13T12:52:34.786Z,49.22
2018-06-13T12:53:40.964Z,49.53
2018-06-13T12:54:47.262Z,49.17
2018-06-13T12:55:53.237Z,50.07
2018-06-13T12:56:59.222Z,49.61
2018-06-13T12:58:05.551Z,49.47
2018-06-13T12:59:11.913Z,50.63
2018-06-13T13:00:18.034Z,50.21
2018-06-13T13:01:24.012Z,50.44
2018-06-13T13:02:30.014Z,50.55
2018-06-13T13:03:36.137Z,50.20
2018-06-13T13:04:42.676Z,50.34
2018-06-13T13:05:48.803Z,51.05
2018-06-13T13:06:55.140Z,50.91
2018-06-13T13:08:01.171Z,50.30
2018-06-13T13:09:11.623Z,50.89
2018-06-13T13:10:17.859Z,50.33
2018-06-13T13:11:23.832Z,49.87
2018-06-13T13:12:29.803Z,49.74
2018-06-13T13:13:35.897Z,50.28
2018-06-13T13:14:41.876Z,49.93
2018-06-13T13:15:49.274Z,48.96
2018-06-13T13:16:57.403Z,49.28
2018-06-13T13:18:06.279Z,48.42
2018-06-13T13:19:12.339Z,48.06
2018-06-13T13:20:18.290Z,47.56
2018-06-13T13:21:24.281Z,47.36
2018-06-13T13:22:30.237Z,47.24
2018-06-13T13:23:36.316Z,47.16
2018-06-13T13:24:42.357Z,47.88
2018-06-13T13:25:49.066Z,47.09
2018-06-13T13:26:55.211Z,47.49
2018-06-13T13:28:01.698Z,47.47
2018-06-13T13:29:07.851Z,47.38
2018-06-13T13:30:13.874Z,46.90
2018-06-13T13:31:20.061Z,47.38
2018-06-13T13:32:26.213Z,47.85
2018-06-13T13:33:32.552Z,47.43
2018-06-13T13:34:38.692Z,47.36
2018-06-13T13:35:45.515Z,47.84
2018-06-13T13:36:52.467Z,47.26
2018-06-13T13:37:58.960Z,47.25
2018-06-13T13:39:08.585Z,47.92
2018-06-13T13:40:15.474Z,47.02
2018-06-13T13:41:21.970Z,47.48
2018-06-13T13:42:30.386Z,47.24
2018-06-13T13:43:36.704Z,47.02
2018-06-13T13:44:42.978Z,47.02
2018-06-13T13:45:50.789Z,47.46
2018-06-13T13:46:57.688Z,46.54
2018-06-13T13:48:04.535Z,47.10
2018-06-13T13:49:11.466Z,47.22
2018-06-13T13:50:18.633Z,47.38
2018-06-13T13:51:26.285Z,47.07
2018-06-13T13:52:32.973Z,47.58
2018-06-13T13:53:39.995Z,47.08
2018-06-13T13:54:46.629Z,47.06
2018-06-13T13:55:53.704Z,47.35
2018-06-13T13:57:00.436Z,48.21
2018-06-13T13:58:08.660Z,47.70
2018-06-13T13:59:16.762Z,48.71
2018-06-13T14:00:23.736Z,48.60
2018-06-13T14:01:30.447Z,49.04
2018-06-13T14:02:38.792Z,48.47
2018-06-13T14:03:45.975Z,49.67
2018-06-13T14:04:53.364Z,49.69
2018-06-13T14:06:01.353Z,50.11
2018-06-13T14:07:09.290Z,49.96
2018-06-13T14:08:17.932Z,50.56
2018-06-13T14:09:24.529Z,50.32
2018-06-13T14:10:31.520Z,50.79
2018-06-13T14:11:38.704Z,50.75
2018-06-13T14:12:46.906Z,50.20
2018-06-13T14:13:53.872Z,50.21
2018-06-13T14:15:02.810Z,49.98
2018-06-13T14:16:10.152Z,50.28
2018-06-13T14:17:18.997Z,49.71
2018-06-13T14:18:26.660Z,49.68
2018-06-13T14:19:33.954Z,50.15
2018-06-13T14:20:41.351Z,49.77
2018-06-13T14:21:49.861Z,49.55
2018-06-13T14:22:57.457Z,49.57
2018-06-13T14:24:04.652Z,50.03
2018-06-13T14:25:11.518Z,49.38
2018-06-13T14:26:18.673Z,50.33
2018-06-13T14:27:25.635Z,50.31
2018-06-13T14:28:34.055Z,49.72
2018-06-13T14:29:41.892Z,50.21
2018-06-13T14:30:48.736Z,50.14
2018-06-13T14:31:55.854Z,50.09
2018-06-13T14:33:04.997Z,49.47
2018-06-13T14:34:13.154Z,49.96
2018-06-13T14:35:20.009Z,49.71
2018-06-13T14:36:27.033Z,50.03
2018-06-13T14:37:34.672Z,49.69
2018-06-13T14:38:41.151Z,50.00
2018-06-13T14:39:47.753Z,49.38
2018-06-13T14:40:57.419Z,49.82
2018-06-13T14:42:04.875Z,49.71
2018-06-13T14:43:11.608Z,49.62
2018-06-13T14:44:18.948Z,49.33
2018-06-13T14:45:27.874Z,48.99
2018-06-13T14:46:36.631Z,48.27
2018-06-13T14:47:43.891Z,48.09
2018-06-13T14:48:52.918Z,48.59
2018-06-13T14:50:00.142Z,48.45
2018-06-13T14:51:08.386Z,47.64
2018-06-13T14:52:15.086Z,48.00
2018-06-13T14:53:22.192Z,48.13
2018-06-13T14:54:29.477Z,47.47
2018-06-13T14:55:42.333Z,47.11
2018-06-13T14:56:49.600Z,47.35
2018-06-13T14:57:56.826Z,47.12
2018-06-13T14:59:05.190Z,47.52
2018-06-13T15:00:12.400Z,47.58
2018-06-13T15:01:19.235Z,47.44
2018-06-13T15:02:26.642Z,47.67
2018-06-13T15:03:32.741Z,47.73
2018-06-13T15:04:40.072Z,47.80
2018-06-13T15:05:46.892Z,48.11
2018-06-13T15:06:54.414Z,47.51
2018-06-13T15:08:01.764Z,47.35
2018-06-13T15:09:11.481Z,47.69
2018-06-13T15:10:17.921Z,47.82
2018-06-13T15:11:26.163Z,48.08
2018-06-13T15:12:33.635Z,48.00
2018-06-13T15:13:41.277Z,47.92
2018-06-13T15:14:48.596Z,48.88
2018-06-13T15:15:55.344Z,48.29
2018-06-13T15:17:02.137Z,48.42
2018-06-13T15:18:10.020Z,49.42
2018-06-13T15:19:18.212Z,49.01
2018-06-13T15:20:24.997Z,49.76
2018-06-13T15:21:32.280Z,49.71
2018-06-13T15:22:39.526Z,50.45
2018-06-13T15:23:45.968Z,50.25
2018-06-13T15:24:52.992Z,51.93
2018-06-13T15:25:59.929Z,51.58
2018-06-13T15:27:06.824Z,51.66
2018-06-13T15:28:14.277Z,52.23
2018-06-13T15:29:21.245Z,51.62
2018-06-13T15:30:28.336Z,52.67
2018-06-13T15:31:35.508Z,52.56
2018-06-13T15:32:42.468Z,52.42
2018-06-13T15:33:49.493Z,52.55
2018-06-13T15:34:56.502Z,53.32
2018-06-13T15:36:03.584Z,52.64
2018-06-13T15:37:11.368Z,52.40
2018-06-13T15:38:18.347Z,52.50
2018-06-13T15:39:25.392Z,52.58
2018-06-13T15:40:32.941Z,53.42
2018-06-13T15:41:41.265Z,52.74
2018-06-13T15:42:48.451Z,53.68
2018-06-13T15:43:55.661Z,53.55
2018-06-13T15:45:02.648Z,53.69
2018-06-13T15:46:10.254Z,54.49
2018-06-13T15:47:17.413Z,54.46
2018-06-13T15:48:24.579Z,54.17
2018-06-13T15:49:34.122Z,54.94
2018-06-13T15:50:42.001Z,54.66
2018-06-13T15:51:49.238Z,54.49
2018-06-13T15:52:58.099Z,54.58
2018-06-13T15:54:05.941Z,54.32
2018-06-13T15:55:13.539Z,54.75
2018-06-13T15:56:20.401Z,54.30
2018-06-13T15:57:27.966Z,53.86
2018-06-13T15:58:35.479Z,53.83
2018-06-13T15:59:42.051Z,54.28
2018-06-13T16:00:49.393Z,53.33
2018-06-13T16:01:57.313Z,53.60
2018-06-13T16:03:04.385Z,53.77
2018-06-13T16:04:11.954Z,53.58
2018-06-13T16:05:19.073Z,53.37
2018-06-13T16:06:26.460Z,52.69
2018-06-13T16:07:33.591Z,52.63
2018-06-13T16:08:42.221Z,52.62
2018-06-13T16:09:49.334Z,52.93
2018-06-13T16:10:57.328Z,52.17
2018-06-13T16:12:05.188Z,52.36
2018-06-13T16:13:12.420Z,53.07
2018-06-13T16:14:19.726Z,52.84
2018-06-13T16:15:27.260Z,52.93
2018-06-13T16:16:34.495Z,52.57
2018-06-13T16:17:42.358Z,52.78
2018-06-13T16:18:49.626Z,52.20
2018-06-13T16:19:58.612Z,52.72
2018-06-13T16:21:06.035Z,52.33
2018-06-13T16:22:14.817Z,52.45
2018-06-13T16:23:25.051Z,52.99
2018-06-13T16:24:32.545Z,52.26
2018-06-13T16:25:40.479Z,52.43
2018-06-13T16:26:48.280Z,52.55
2018-06-13T16:27:55.766Z,51.87
2018-06-13T16:29:03.509Z,52.54
2018-06-13T16:30:11.514Z,52.48
2018-06-13T16:31:19.312Z,51.73
2018-06-13T16:32:27.150Z,51.43
2018-06-13T16:33:34.799Z,52.17
2018-06-13T16:34:42.407Z,51.72
2018-06-13T16:35:50.984Z,51.43
2018-06-13T16:36:59.433Z,51.82
2018-06-13T16:38:07.139Z,51.19
2018-06-13T16:39:16.004Z,51.84
2018-06-13T16:40:25.143Z,51.88
2018-06-13T16:41:33.149Z,51.10
2018-06-13T16:42:40.526Z,51.23
2018-06-13T16:43:50.329Z,51.34
2018-06-13T16:44:58.318Z,51.73
2018-06-13T16:46:07.113Z,51.05
2018-06-13T16:47:15.109Z,51.12
2018-06-13T16:48:23.956Z,51.72
2018-06-13T16:49:33.733Z,50.85
2018-06-13T16:50:58.157Z,51.78
2018-06-13T16:52:20.360Z,51.29
2018-06-13T16:53:53.645Z,51.17
2018-06-13T16:55:25.611Z,51.59
2018-06-13T16:56:32.860Z,51.74
2018-06-13T16:57:40.260Z,51.89
2018-06-13T16:58:47.861Z,51.74
2018-06-13T16:59:56.388Z,52.23
2018-06-13T17:01:05.096Z,51.50
2018-06-13T17:02:12.323Z,51.57
2018-06-13T17:03:19.481Z,51.70
2018-06-13T17:04:27.380Z,52.39
2018-06-13T17:05:35.537Z,52.08
2018-06-13T17:06:42.538Z,51.99
2018-06-13T17:07:49.722Z,51.82
2018-06-13T17:08:58.529Z,51.97
2018-06-13T17:10:07.060Z,51.36
2018-06-13T17:11:15.409Z,51.52
2018-06-13T17:12:24.149Z,52.12
2018-06-13T17:13:31.748Z,51.31
2018-06-13T17:14:40.004Z,51.30
2018-06-13T17:15:47.736Z,52.10
2018-06-13T17:16:56.124Z,51.34
2018-06-13T17:18:03.858Z,51.91
2018-06-13T17:19:11.402Z,51.58
2018-06-13T17:20:19.605Z,51.64
2018-06-13T17:21:27.020Z,51.85
2018-06-13T17:22:35.196Z,52.52
2018-06-13T17:23:43.092Z,52.36
2018-06-13T17:24:51.406Z,51.71
2018-06-13T17:26:01.158Z,52.18
2018-06-13T17:27:10.541Z,51.84
2018-06-13T17:28:23.278Z,51.39
2018-06-13T17:29:32.196Z,53.00
2018-06-13T17:30:42.528Z,51.86
2018-06-13T17:31:49.291Z,52.12
2018-06-13T17:32:57.824Z,52.34
2018-06-13T17:34:10.922Z,51.59
2018-06-13T17:35:19.258Z,51.67
2018-06-13T17:36:27.674Z,52.28
2018-06-13T17:37:35.089Z,52.13
2018-06-13T17:38:43.890Z,51.81
2018-06-13T17:39:53.570Z,51.76
2018-06-13T17:41:02.202Z,51.69
2018-06-13T17:42:11.796Z,51.98
2018-06-13T17:43:19.390Z,52.06
2018-06-13T17:44:27.647Z,52.03
2018-06-13T17:45:37.565Z,52.73
2018-06-13T17:46:46.737Z,52.00
2018-06-13T17:47:55.015Z,52.44
2018-06-13T17:49:06.267Z,52.03
2018-06-13T17:50:15.044Z,52.46
2018-06-13T17:51:22.940Z,52.97
2018-06-13T17:52:30.185Z,53.08
2018-06-13T17:53:38.079Z,53.33
2018-06-13T17:54:46.049Z,52.54
2018-06-13T17:55:53.450Z,53.48
2018-06-13T17:57:01.229Z,52.85
2018-06-13T17:58:10.026Z,52.95
2018-06-13T17:59:17.201Z,53.53
2018-06-13T18:00:26.053Z,53.40
2018-06-13T18:01:34.159Z,52.95
2018-06-13T18:02:43.585Z,52.68
2018-06-13T18:03:51.194Z,53.39
2018-06-13T18:05:00.037Z,52.94
2018-06-13T18:06:08.986Z,53.51
2018-06-13T18:07:17.833Z,53.15
2018-06-13T18:08:26.087Z,53.38
2018-06-13T18:09:33.788Z,54.11
2018-06-13T18:10:41.839Z,53.62
2018-06-13T18:11:50.418Z,53.24
2018-06-13T18:12:58.141Z,53.96
2018-06-13T18:14:05.213Z,53.61
2018-06-13T18:15:12.465Z,53.43
2018-06-13T18:16:22.227Z,54.07
2018-06-13T18:17:32.319Z,53.97
2018-06-13T18:18:41.070Z,54.63
2018-06-13T18:19:48.612Z,54.26
2018-06-13T18:20:56.404Z,54.44
2018-06-13T18:22:04.579Z,54.50
2018-06-13T18:23:12.326Z,54.31
2018-06-13T18:24:21.378Z,54.07
2018-06-13T18:25:29.015Z,54.07
2018-06-13T18:26:37.217Z,54.12
2018-06-13T18:27:44.547Z,54.56
2018-06-13T18:28:52.081Z,54.77
2018-06-13T18:29:58.959Z,54.62
2018-06-13T18:31:06.158Z,54.17
2018-06-13T18:32:12.825Z,54.15
2018-06-13T18:33:20.601Z,54.16
2018-06-13T18:34:29.771Z,54.34
2018-06-13T18:35:37.641Z,54.26
2018-06-13T18:36:45.043Z,54.58
2018-06-13T18:37:52.535Z,55.36
2018-06-13T18:39:00.482Z,54.62
2018-06-13T18:40:07.765Z,54.75
2018-06-13T18:41:19.613Z,55.41
2018-06-13T18:42:27.666Z,55.17
2018-06-13T18:43:35.484Z,54.79
2018-06-13T18:44:45.208Z,54.68
2018-06-13T18:45:54.696Z,55.40
2018-06-13T18:47:04.172Z,55.07
2018-06-13T18:48:12.620Z,55.43
2018-06-13T18:49:20.684Z,55.92
2018-06-13T18:50:28.692Z,54.94
2018-06-13T18:51:36.453Z,55.19
2018-06-13T18:52:43.869Z,54.97
2018-06-13T18:53:52.368Z,55.76
2018-06-13T18:55:02.982Z,55.34
2018-06-13T18:56:16.569Z,55.40
2018-06-13T18:57:23.215Z,55.43
2018-06-13T18:58:30.224Z,55.82
2018-06-13T18:59:38.806Z,55.50
2018-06-13T19:00:48.091Z,56.29
2018-06-13T19:01:56.409Z,55.80
2018-06-13T19:03:05.047Z,55.93
2018-06-13T19:04:12.880Z,55.55
2018-06-13T19:05:21.605Z,55.77
2018-06-13T19:06:29.581Z,55.95
2018-06-13T19:07:39.631Z,56.45
2018-06-13T19:08:52.173Z,56.91
2018-06-13T19:10:00.089Z,56.82
2018-06-13T19:11:07.644Z,56.89
2018-06-13T19:12:15.779Z,57.05
2018-06-13T19:13:23.780Z,56.67
2018-06-13T19:14:31.088Z,56.41
2018-06-13T19:15:38.765Z,56.12
2018-06-13T19:16:46.524Z,55.98
2018-06-13T19:17:55.594Z,56.29
2018-06-13T19:19:05.181Z,56.30
2018-06-13T19:20:14.869Z,56.63
2018-06-13T19:21:23.433Z,57.09
2018-06-13T19:22:32.453Z,56.68
2018-06-13T19:23:40.849Z,56.58
2018-06-13T19:24:50.996Z,57.35
2018-06-13T19:26:01.665Z,57.52
2018-06-13T19:27:10.998Z,57.02
2018-06-13T19:28:19.274Z,56.64
2018-06-13T19:29:28.490Z,57.31
2018-06-13T19:30:38.059Z,56.92
2018-06-13T19:31:47.105Z,56.99
2018-06-13T19:32:54.429Z,57.50
2018-06-13T19:34:04.380Z,57.33
2018-06-13T19:35:16.100Z,57.36
2018-06-13T19:36:23.573Z,57.59
2018-06-13T19:37:33.826Z,57.50
2018-06-13T19:38:42.029Z,56.92
2018-06-13T19:39:49.762Z,57.27
2018-06-13T19:40:58.835Z,57.12
2018-06-13T19:42:06.514Z,57.58
2018-06-13T19:43:20.779Z,57.57
2018-06-13T19:44:29.557Z,57.06
2018-06-13T19:45:37.952Z,56.90
2018-06-13T19:46:45.758Z,57.55
2018-06-13T19:47:57.685Z,56.96
2018-06-13T19:49:06.304Z,57.12
2018-06-13T19:50:15.196Z,56.90
2018-06-13T19:51:22.434Z,57.35
2018-06-13T19:52:34.653Z,57.52
2018-06-13T19:53:47.808Z,57.23
2018-06-13T19:55:00.566Z,57.18
2018-06-13T19:56:10.632Z,56.49
2018-06-13T19:57:18.336Z,56.62
2018-06-13T19:58:27.749Z,56.82
2018-06-13T19:59:39.973Z,56.55
2018-06-13T20:00:48.009Z,57.08
2018-06-13T20:01:59.544Z,56.63
2018-06-13T20:03:12.475Z,57.29
2018-06-13T20:04:26.865Z,57.02
2018-06-13T20:05:42.348Z,57.39
2018-06-13T20:06:53.270Z,57.50
2018-06-13T20:08:03.175Z,57.35
2018-06-13T20:09:12.081Z,56.91
2018-06-13T20:10:19.309Z,57.62
2018-06-13T20:11:26.585Z,57.12
2018-06-13T20:12:46.286Z,57.69
2018-06-13T20:13:59.947Z,57.22
2018-06-13T20:15:11.904Z,56.97
2018-06-13T20:16:40.221Z,57.35
2018-06-13T20:17:52.449Z,57.06
2018-06-13T20:19:06.520Z,57.44
2018-06-13T20:20:14.536Z,57.64
2018-06-13T20:21:25.300Z,57.84
2018-06-13T20:22:33.400Z,57.44
2018-06-13T20:23:48.050Z,57.90
2018-06-13T20:25:01.304Z,57.20
2018-06-13T20:26:14.692Z,56.88
2018-06-13T20:27:27.955Z,57.27
2018-06-13T20:28:41.536Z,56.86
2018-06-13T20:29:56.121Z,57.10
2018-06-13T20:31:09.076Z,57.44
2018-06-13T20:32:18.642Z,56.83
2018-06-13T20:33:26.877Z,57.32
2018-06-13T20:34:35.445Z,57.39
2018-06-13T20:35:50.489Z,57.35
2018-06-13T20:37:00.612Z,57.22
2018-06-13T20:38:09.556Z,57.53
2018-06-13T20:39:18.853Z,56.83
2018-06-13T20:40:27.816Z,57.38
2018-06-13T20:41:37.666Z,57.29
2018-06-13T20:42:53.471Z,57.25
2018-06-13T20:44:02.154Z,56.91
2018-06-13T20:45:09.915Z,57.51
2018-06-13T20:46:19.844Z,57.42
2018-06-13T20:47:29.651Z,57.51
2018-06-13T20:48:40.142Z,56.78
2018-06-13T20:49:49.473Z,57.34
2018-06-13T20:51:01.810Z,57.33
2018-06-13T20:52:09.961Z,57.28
2018-06-13T20:53:18.709Z,56.68
2018-06-13T20:54:27.356Z,57.27
2018-06-13T20:55:36.311Z,56.76
2018-06-13T20:56:46.064Z,56.48
2018-06-13T20:57:55.914Z,56.55
2018-06-13T20:59:07.150Z,56.76
2018-06-13T21:00:15.533Z,56.71
2018-06-13T21:01:25.047Z,57.28
2018-06-13T21:02:33.536Z,56.53
2018-06-13T21:03:41.974Z,56.98
2018-06-13T21:04:53.659Z,56.68
2018-06-13T21:06:02.576Z,57.06
2018-06-13T21:07:11.395Z,57.04
2018-06-13T21:08:19.304Z,57.11
2018-06-13T21:09:32.907Z,56.80
2018-06-13T21:10:41.600Z,56.34
2018-06-13T21:11:51.513Z,56.99
2018-06-13T21:12:59.500Z,56.58
2018-06-13T21:14:08.671Z,56.74
2018-06-13T21:15:16.139Z,56.53
2018-06-13T21:16:25.308Z,57.23
2018-06-13T21:17:32.488Z,56.61
2018-06-13T21:18:44.819Z,56.99
2018-06-13T21:19:52.603Z,56.85
2018-06-13T21:21:02.126Z,57.13
2018-06-13T21:22:11.491Z,56.27
2018-06-13T21:23:19.110Z,56.20
2018-06-13T21:24:28.293Z,56.21
2018-06-13T21:25:36.366Z,56.33
2018-06-13T21:26:44.504Z,56.59
2018-06-13T21:27:51.344Z,56.64
2018-06-13T21:29:01.216Z,56.92
2018-06-13T21:30:09.119Z,56.43
2018-06-13T21:31:19.229Z,56.57
2018-06-13T21:32:26.673Z,56.25
2018-06-13T21:33:34.553Z,57.18
2018-06-13T21:34:42.852Z,56.81
2018-06-13T21:35:51.179Z,56.44
2018-06-13T21:36:59.191Z,56.62
2018-06-13T21:38:07.736Z,56.53
2018-06-13T21:39:17.166Z,57.18
2018-06-13T21:40:25.582Z,56.57
2018-06-13T21:41:33.060Z,56.89
2018-06-13T21:42:41.137Z,56.98
2018-06-13T21:43:48.464Z,56.95
2018-06-13T21:44:56.805Z,56.52
2018-06-13T21:46:08.303Z,57.07
2018-06-13T21:47:16.416Z,56.66
2018-06-13T21:48:23.751Z,56.65
2018-06-13T21:49:31.166Z,56.65
2018-06-13T21:50:38.314Z,57.05
2018-06-13T21:51:46.268Z,57.05
2018-06-13T21:52:53.929Z,57.13
2018-06-13T21:54:01.563Z,56.48
2018-06-13T21:55:09.180Z,56.95
2018-06-13T21:56:16.553Z,57.45
2018-06-13T21:57:24.893Z,57.43
2018-06-13T21:58:32.819Z,57.39
2018-06-13T21:59:40.108Z,56.82
2018-06-13T22:00:47.469Z,56.90
2018-06-13T22:01:56.206Z,57.49
2018-06-13T22:03:03.774Z,56.81
2018-06-13T22:04:10.859Z,56.83
2018-06-13T22:05:19.357Z,57.68
2018-06-13T22:06:28.680Z,56.91
2018-06-13T22:07:36.696Z,57.56
2018-06-13T22:08:44.311Z,57.24
2018-06-13T22:09:52.583Z,57.04
2018-06-13T22:11:00.206Z,57.38
2018-06-13T22:12:07.446Z,57.67
2018-06-13T22:13:14.945Z,57.22
2018-06-13T22:14:23.732Z,57.65
2018-06-13T22:15:31.700Z,57.67
2018-06-13T22:16:39.216Z,57.82
2018-06-13T22:17:47.462Z,57.38
2018-06-13T22:18:54.587Z,57.77
2018-06-13T22:20:01.137Z,57.43
2018-06-13T22:21:07.109Z,57.05
2018-06-13T22:22:14.560Z,57.74
2018-06-13T22:23:20.543Z,57.37
2018-06-13T22:24:26.633Z,57.67
2018-06-13T22:25:32.622Z,57.64
2018-06-13T22:26:39.722Z,56.97
2018-06-13T22:27:45.845Z,57.90
2018-06-13T22:28:52.246Z,56.91
2018-06-13T22:29:58.406Z,57.05
2018-06-13T22:31:04.354Z,57.88
2018-06-13T22:32:10.556Z,57.24
2018-06-13T22:33:16.542Z,57.32
2018-06-13T22:34:22.166Z,57.14
2018-06-13T22:35:28.033Z,57.34
2018-06-13T22:36:33.622Z,57.48
2018-06-13T22:37:39.499Z,58.02
2018-06-13T22:38:45.722Z,57.87
2018-06-13T22:39:51.706Z,58.08
2018-06-13T22:40:57.673Z,57.32
2018-06-13T22:42:03.631Z,57.67
2018-06-13T22:43:09.843Z,57.31
2018-06-13T22:44:15.987Z,57.25
2018-06-13T22:45:21.988Z,57.33
2018-06-13T22:46:27.967Z,57.72
2018-06-13T22:47:33.727Z,57.90
2018-06-13T22:48:39.898Z,58.02
2018-06-13T22:49:46.163Z,57.78
2018-06-13T22:50:52.323Z,57.61
2018-06-13T22:51:58.811Z,57.75
2018-06-13T22:53:04.756Z,57.28
2018-06-13T22:54:10.710Z,57.45
2018-06-13T22:55:16.690Z,57.41
2018-06-13T22:56:22.349Z,57.44
2018-06-13T22:57:28.297Z,57.17
2018-06-13T22:58:34.252Z,57.72
2018-06-13T22:59:40.224Z,57.75
2018-06-13T23:01:09.176Z,58.00
2018-06-13T23:02:15.630Z,58.00
2018-06-13T23:03:24.185Z,57.33
2018-06-13T23:04:31.547Z,57.59
2018-06-13T23:05:38.798Z,58.03
2018-06-13T23:06:45.376Z,58.13
2018-06-13T23:07:52.067Z,57.38
2018-06-13T23:08:59.023Z,57.91
2018-06-13T23:10:05.166Z,57.73
2018-06-13T23:11:11.733Z,58.13
2018-06-13T23:12:18.581Z,57.66
2018-06-13T23:13:24.572Z,57.42
2018-06-13T23:14:30.675Z,57.74
2018-06-13T23:15:36.696Z,57.40
2018-06-13T23:16:42.282Z,57.05
2018-06-13T23:17:48.139Z,57.41
2018-06-13T23:18:54.353Z,58.30
2018-06-13T23:20:01.179Z,57.62
2018-06-13T23:21:07.621Z,57.97
2018-06-13T23:22:14.005Z,57.55
2018-06-13T23:23:20.519Z,58.12
2018-06-13T23:24:26.611Z,58.31
2018-06-13T23:25:32.717Z,58.10
2018-06-13T23:26:38.751Z,58.16
2018-06-13T23:27:44.707Z,57.89
2018-06-13T23:28:50.675Z,57.76
2018-06-13T23:29:56.638Z,57.67
2018-06-13T23:31:02.679Z,57.77
2018-06-13T23:32:08.890Z,57.83
2018-06-13T23:33:14.825Z,58.45
2018-06-13T23:34:20.799Z,58.00
2018-06-13T23:35:26.762Z,57.90
2018-06-13T23:36:32.723Z,57.78
2018-06-13T23:37:38.705Z,58.32
2018-06-13T23:38:44.651Z,58.54
2018-06-13T23:39:50.609Z,58.70
2018-06-13T23:40:56.696Z,58.10
2018-06-13T23:42:02.716Z,58.45
2018-06-13T23:43:08.736Z,57.84
2018-06-13T23:44:14.687Z,58.32
2018-06-13T23:45:20.675Z,58.29
2018-06-13T23:46:26.679Z,58.72
2018-06-13T23:47:32.628Z,58.79
2018-06-13T23:48:38.578Z,58.64
2018-06-13T23:49:44.520Z,58.54
2018-06-13T23:50:50.555Z,58.60
2018-06-13T23:51:56.923Z,58.42
2018-06-13T23:53:02.905Z,58.80
2018-06-13T23:54:08.925Z,58.32
2018-06-13T23:55:14.905Z,58.85
2018-06-13T23:56:20.890Z,58.33
2018-06-13T23:57:26.898Z,59.01
2018-06-13T23:58:32.883Z,58.85
2018-06-13T23:59:38.803Z,58.97
